Time;durP1;ratioP1;P1;durP2;ratioP2;P2;SDS_P1;SDS_P2;PMS_P1;PMS_P2;Temp;Humidity;BMP_temperature;BMP_pressure;BME280_temperature;BME280_humidity;BME280_pressure;Samples;Min_cycle;Max_cycle;Signal;HPM_P1;HPM_P2
2022/08/28 00:01:47;;;;;;;2.17;1.98;;;22.00;66.40;;;;;;941668;149;27326;-75
2022/08/28 00:04:13;;;;;;;2.52;1.95;;;22.00;66.40;;;;;;946518;147;27884;-76
2022/08/28 00:06:40;;;;;;;3.25;2.22;;;22.00;66.50;;;;;;946890;147;27399;-76
2022/08/28 00:09:07;;;;;;;4.12;2.42;;;22.00;66.40;;;;;;949989;148;29069;-75
2022/08/28 00:11:36;;;;;;;2.20;2.00;;;21.90;66.40;;;;;;944602;147;27427;-76
2022/08/28 00:14:00;;;;;;;2.52;1.98;;;21.90;66.50;;;;;;946350;147;27389;-76
2022/08/28 00:16:26;;;;;;;2.30;2.10;;;21.80;66.50;;;;;;945364;148;27468;-76
2022/08/28 00:18:53;;;;;;;2.98;2.05;;;21.80;66.60;;;;;;930529;151;27342;-76
2022/08/28 00:21:20;;;;;;;2.00;1.80;;;21.70;66.70;;;;;;945866;151;27402;-75
2022/08/28 00:23:47;;;;;;;2.85;2.30;;;21.70;66.80;;;;;;941596;149;27445;-75
2022/08/28 00:27:51;;;;;;;3.17;2.17;;;21.70;67.00;;;;;;941694;149;27354;-76
2022/08/28 00:28:39;;;;;;;2.65;2.00;;;21.60;67.10;;;;;;938288;149;27414;-76
2022/08/28 00:31:06;;;;;;;3.22;2.22;;;21.60;67.20;;;;;;942274;149;27704;-76
2022/08/28 00:33:33;;;;;;;2.00;1.80;;;21.60;67.50;;;;;;940496;149;27419;-76
2022/08/28 00:35:59;;;;;;;2.22;2.00;;;21.60;67.50;;;;;;940273;149;27361;-76
2022/08/28 00:38:26;;;;;;;3.33;2.10;;;21.50;67.70;;;;;;940091;149;27465;-76
2022/08/28 00:40:52;;;;;;;2.12;1.90;;;21.50;67.70;;;;;;941527;149;28456;-76
2022/08/28 00:43:34;;;;;;;3.42;2.08;;;21.50;67.90;;;;;;941754;149;27271;-76
2022/08/28 00:46:01;;;;;;;2.35;2.15;;;21.50;67.90;;;;;;936558;149;27483;-75
2022/08/28 00:48:27;;;;;;;3.35;2.40;;;21.40;68.10;;;;;;926731;151;27495;-75
2022/08/28 00:53:39;;;;;;;2.58;2.08;;;21.40;68.20;;;;;;925839;154;27394;-75
2022/08/28 00:56:05;;;;;;;2.00;1.90;;;21.40;68.20;;;;;;928438;154;27794;-75
2022/08/28 00:58:32;;;;;;;2.33;2.10;;;21.40;68.40;;;;;;927895;153;27400;-75
2022/08/28 01:00:59;;;;;;;2.50;1.72;;;21.40;68.60;;;;;;927159;154;27286;-75
2022/08/28 01:03:25;;;;;;;3.33;2.10;;;21.40;68.70;;;;;;927245;152;27397;-75
2022/08/28 01:05:52;;;;;;;2.85;1.95;;;21.40;68.90;;;;;;927843;154;27346;-75
2022/08/28 01:08:18;;;;;;;2.17;1.98;;;21.40;69.00;;;;;;927200;153;27396;-75
2022/08/28 01:10:45;;;;;;;4.83;2.70;;;21.40;69.20;;;;;;926760;154;27396;-75
2022/08/28 01:13:12;;;;;;;2.87;2.25;;;21.40;69.20;;;;;;926913;154;27383;-76
2022/08/28 01:15:39;;;;;;;2.98;2.25;;;21.40;69.30;;;;;;926963;152;27362;-76
2022/08/28 01:18:05;;;;;;;3.92;2.58;;;21.40;69.30;;;;;;926818;154;27358;-76
2022/08/28 01:20:31;;;;;;;3.17;2.40;;;21.40;69.30;;;;;;927219;151;27465;-76
2022/08/28 01:23:16;;;;;;;2.58;2.35;;;21.40;69.30;;;;;;942473;151;27328;-76
2022/08/28 01:25:43;;;;;;;3.08;2.10;;;21.40;70.20;;;;;;927292;153;27369;-76
2022/08/28 01:28:11;;;;;;;2.45;2.08;;;21.40;69.50;;;;;;942454;151;27365;-75
2022/08/28 01:30:36;;;;;;;1.75;1.65;;;21.40;69.40;;;;;;943128;151;27304;-75
2022/08/28 01:33:03;;;;;;;2.30;2.08;;;21.30;69.40;;;;;;942967;149;27877;-75
2022/08/28 01:35:30;;;;;;;2.08;1.90;;;21.30;69.50;;;;;;927658;154;27460;-76
2022/08/28 01:37:56;;;;;;;2.30;2.10;;;21.30;69.60;;;;;;928622;153;27486;-75
2022/08/28 01:40:25;;;;;;;1.95;1.65;;;21.30;69.80;;;;;;944573;150;27331;-75
2022/08/28 01:42:52;;;;;;;2.80;2.22;;;21.20;69.70;;;;;;943493;149;27424;-75
2022/08/28 01:45:19;;;;;;;3.30;2.08;;;21.20;69.80;;;;;;939787;150;27311;-75
2022/08/28 01:47:45;;;;;;;2.37;2.10;;;21.20;69.90;;;;;;944213;149;27393;-75
2022/08/28 01:50:11;;;;;;;2.65;1.82;;;21.20;70.00;;;;;;946819;148;27313;-75
2022/08/28 01:52:38;;;;;;;2.45;2.22;;;21.10;70.10;;;;;;933176;151;27350;-75
2022/08/28 01:55:05;;;;;;;2.20;1.80;;;21.10;70.10;;;;;;942965;151;27353;-75
2022/08/28 01:57:31;;;;;;;3.33;2.20;;;21.10;70.30;;;;;;946004;151;27340;-75
2022/08/28 01:59:58;;;;;;;2.20;2.02;;;21.00;70.30;;;;;;945742;150;27344;-75
2022/08/28 02:02:24;;;;;;;2.42;2.17;;;21.00;70.50;;;;;;943692;151;28575;-75
2022/08/28 02:04:52;;;;;;;4.08;2.35;;;21.00;70.60;;;;;;939362;152;27419;-75
2022/08/28 02:07:18;;;;;;;2.25;2.00;;;20.90;70.70;;;;;;939952;151;27325;-75
2022/08/28 02:09:44;;;;;;;2.52;2.33;;;20.90;70.90;;;;;;939096;151;27731;-75
2022/08/28 02:12:11;;;;;;;2.05;1.87;;;20.90;70.90;;;;;;939955;152;27991;-75
2022/08/28 02:14:37;;;;;;;2.37;2.17;;;20.90;71.40;;;;;;939692;152;27353;-75
2022/08/28 02:17:04;;;;;;;2.62;2.42;;;20.80;71.20;;;;;;939996;152;27438;-75
2022/08/28 02:19:31;;;;;;;3.12;2.10;;;20.80;71.40;;;;;;938855;151;27369;-75
2022/08/28 02:21:57;;;;;;;2.20;2.00;;;20.80;71.50;;;;;;939860;151;27419;-75
2022/08/28 02:24:24;;;;;;;2.62;1.98;;;20.70;71.50;;;;;;939311;151;27348;-75
2022/08/28 02:26:50;;;;;;;2.30;2.10;;;20.70;71.70;;;;;;931601;154;27354;-75
2022/08/28 02:29:17;;;;;;;2.75;2.12;;;20.70;71.80;;;;;;931470;151;28318;-75
2022/08/28 02:31:44;;;;;;;2.12;1.92;;;20.60;71.90;;;;;;946174;148;27253;-74
2022/08/28 02:34:10;;;;;;;2.98;2.30;;;20.60;72.00;;;;;;946941;150;27411;-75
2022/08/28 02:36:37;;;;;;;2.95;2.30;;;20.60;72.20;;;;;;947457;148;27304;-75
2022/08/28 02:39:03;;;;;;;2.65;2.25;;;20.50;72.40;;;;;;941788;150;27391;-75
2022/08/28 02:41:30;;;;;;;4.80;2.67;;;20.50;72.90;;;;;;941483;149;27478;-75
2022/08/28 02:43:56;;;;;;;4.12;2.15;;;20.40;72.70;;;;;;942718;151;27441;-75
2022/08/28 02:46:23;;;;;;;2.27;2.10;;;20.40;72.80;;;;;;947474;149;27402;-74
2022/08/28 02:48:50;;;;;;;3.12;2.47;;;20.40;73.10;;;;;;929013;148;27426;-74
2022/08/28 02:51:18;;;;;;;3.00;2.00;;;20.40;73.30;;;;;;927135;153;27359;-74
2022/08/28 02:53:43;;;;;;;3.35;2.37;;;20.30;73.50;;;;;;928563;152;27358;-74
2022/08/28 02:56:10;;;;;;;3.45;2.20;;;20.30;73.60;;;;;;928013;154;27349;-74
2022/08/28 02:58:36;;;;;;;3.22;2.35;;;20.30;73.90;;;;;;928157;154;27381;-74
2022/08/28 03:01:03;;;;;;;2.90;2.27;;;20.30;74.10;;;;;;927124;154;27353;-75
2022/08/28 03:03:32;;;;;;;2.08;1.87;;;20.30;74.20;;;;;;927416;154;27500;-74
2022/08/28 03:05:56;;;;;;;2.20;2.10;;;20.30;74.40;;;;;;928582;154;27446;-74
2022/08/28 03:08:23;;;;;;;3.15;2.45;;;20.30;74.50;;;;;;927349;154;27431;-74
2022/08/28 03:10:49;;;;;;;3.60;2.17;;;20.30;74.60;;;;;;928739;154;27365;-74
2022/08/28 03:13:16;;;;;;;2.52;1.98;;;20.40;74.70;;;;;;928304;154;27326;-74
2022/08/28 03:15:42;;;;;;;3.62;2.58;;;20.40;74.90;;;;;;942543;149;27486;-75
2022/08/28 03:18:09;;;;;;;2.25;2.05;;;20.40;74.90;;;;;;942761;149;27340;-74
2022/08/28 03:20:35;;;;;;;2.10;2.00;;;20.40;74.90;;;;;;943613;151;27344;-74
2022/08/28 03:25:47;;;;;;;4.10;2.35;;;20.40;74.90;;;;;;939850;151;27365;-74
2022/08/28 03:28:13;;;;;;;2.40;2.20;;;20.40;74.60;;;;;;943267;151;27357;-74
2022/08/28 03:30:40;;;;;;;2.17;2.00;;;20.50;74.90;;;;;;945401;151;27306;-74
2022/08/28 03:33:07;;;;;;;3.50;2.08;;;20.50;74.80;;;;;;943496;149;28056;-74
2022/08/28 03:35:33;;;;;;;2.30;2.10;;;20.50;74.90;;;;;;943295;149;27447;-74
2022/08/28 03:38:00;;;;;;;4.42;2.20;;;20.50;74.90;;;;;;939005;150;27817;-74
2022/08/28 03:40:26;;;;;;;2.30;2.10;;;20.50;74.90;;;;;;939307;149;27358;-74
2022/08/28 03:42:53;;;;;;;2.55;2.35;;;20.50;75.00;;;;;;928639;152;27978;-74
2022/08/28 03:45:20;;;;;;;3.90;2.40;;;20.40;74.90;;;;;;928574;152;27363;-74
2022/08/28 03:47:46;;;;;;;1.95;1.85;;;20.40;74.90;;;;;;929688;151;27423;-74
2022/08/28 03:50:13;;;;;;;5.35;2.35;;;20.40;75.00;;;;;;943523;149;27375;-74
2022/08/28 03:52:39;;;;;;;2.58;1.90;;;20.40;75.00;;;;;;949301;149;27389;-74
2022/08/28 03:55:07;;;;;;;3.45;2.42;;;20.40;75.00;;;;;;947700;149;27295;-74
2022/08/28 03:57:32;;;;;;;2.85;2.37;;;20.40;75.20;;;;;;948908;148;27386;-74
2022/08/28 03:59:59;;;;;;;3.27;2.12;;;20.30;75.20;;;;;;950929;149;27349;-74
2022/08/28 04:02:26;;;;;;;2.62;2.42;;;20.30;75.30;;;;;;951423;150;27271;-74
2022/08/28 04:04:52;;;;;;;3.90;2.12;;;20.30;75.50;;;;;;951165;150;28039;-74
2022/08/28 04:07:19;;;;;;;2.72;2.10;;;20.20;75.60;;;;;;951504;148;27319;-74
2022/08/28 04:09:45;;;;;;;2.30;2.10;;;20.20;75.80;;;;;;951075;148;27343;-74
2022/08/28 04:12:13;;;;;;;2.72;1.70;;;20.20;76.00;;;;;;951480;148;27326;-74
2022/08/28 04:14:39;;;;;;;2.40;2.20;;;20.10;76.10;;;;;;950885;150;27436;-74
2022/08/28 04:17:05;;;;;;;3.02;1.95;;;20.10;76.40;;;;;;950844;148;27345;-74
2022/08/28 04:19:32;;;;;;;3.15;2.10;;;20.10;76.60;;;;;;950142;149;27283;-74
2022/08/28 04:21:58;;;;;;;4.67;2.87;;;20.10;76.70;;;;;;951066;148;27453;-74
2022/08/28 04:24:25;;;;;;;4.33;2.55;;;20.10;76.70;;;;;;951720;148;27363;-74
2022/08/28 04:26:52;;;;;;;2.72;2.30;;;20.10;76.90;;;;;;951050;150;27376;-74
2022/08/28 04:29:18;;;;;;;2.95;2.00;;;20.10;77.00;;;;;;951269;150;27275;-74
2022/08/28 04:31:45;;;;;;;3.08;2.00;;;20.10;77.10;;;;;;952110;148;27398;-74
2022/08/28 04:34:12;;;;;;;3.75;2.20;;;20.10;77.10;;;;;;951011;148;27368;-74
2022/08/28 04:36:38;;;;;;;3.58;2.58;;;20.10;77.10;;;;;;952725;148;27341;-74
2022/08/28 04:39:07;;;;;;;2.67;1.95;;;20.10;77.20;;;;;;951575;150;27314;-74
2022/08/28 04:41:31;;;;;;;2.37;2.17;;;20.10;77.40;;;;;;952172;150;27890;-74
2022/08/28 04:43:58;;;;;;;3.45;2.02;;;20.10;77.50;;;;;;952671;148;27319;-74
2022/08/28 04:46:24;;;;;;;1.80;1.70;;;20.10;77.60;;;;;;952723;150;27306;-74
2022/08/28 04:48:51;;;;;;;2.33;1.77;;;20.10;77.60;;;;;;945011;148;27531;-74
2022/08/28 04:51:19;;;;;;;3.65;1.95;;;20.10;77.70;;;;;;925442;152;27376;-74
2022/08/28 04:53:44;;;;;;;3.33;2.40;;;20.10;77.70;;;;;;926188;152;27333;-74
2022/08/28 04:56:11;;;;;;;2.65;1.87;;;20.10;77.60;;;;;;926619;153;27446;-73
2022/08/28 04:58:37;;;;;;;3.15;2.10;;;20.20;77.80;;;;;;925681;152;27430;-73
2022/08/28 05:01:06;;;;;;;2.20;1.90;;;20.20;77.80;;;;;;926151;154;27455;-74
2022/08/28 05:03:33;;;;;;;4.10;2.33;;;20.20;77.80;;;;;;925696;154;27286;-74
2022/08/28 05:05:59;;;;;;;2.87;2.25;;;20.20;77.70;;;;;;926848;154;27355;-74
2022/08/28 05:08:28;;;;;;;2.27;1.95;;;20.20;77.70;;;;;;925844;151;27464;-74
2022/08/28 05:10:53;;;;;;;3.50;2.27;;;20.30;77.60;;;;;;926655;152;27417;-74
2022/08/28 05:13:19;;;;;;;2.20;2.00;;;20.30;77.70;;;;;;926016;153;27461;-74
2022/08/28 05:15:46;;;;;;;3.15;1.85;;;20.30;77.60;;;;;;926352;154;28101;-74
2022/08/28 05:18:13;;;;;;;3.22;1.80;;;20.30;77.80;;;;;;925321;152;27901;-74
2022/08/28 05:20:39;;;;;;;2.92;1.87;;;20.40;77.80;;;;;;926616;154;27323;-74
2022/08/28 05:23:08;;;;;;;3.37;1.90;;;20.40;77.90;;;;;;925963;152;27417;-74
2022/08/28 05:25:38;;;;;;;3.40;1.82;;;20.40;77.80;;;;;;926348;154;27371;-74
2022/08/28 05:28:04;;;;;;;4.05;2.00;;;20.50;77.80;;;;;;925554;151;27544;-74
2022/08/28 05:30:31;;;;;;;3.33;1.82;;;20.50;77.50;;;;;;925663;152;27476;-74
2022/08/28 05:32:58;;;;;;;2.05;1.75;;;20.60;77.50;;;;;;926610;152;27436;-74
2022/08/28 05:35:24;;;;;;;2.77;2.00;;;20.60;77.40;;;;;;926756;152;27417;-74
2022/08/28 05:37:51;;;;;;;1.72;1.57;;;20.70;77.60;;;;;;924715;151;27375;-74
2022/08/28 05:40:19;;;;;;;4.50;2.22;;;20.70;77.60;;;;;;925496;154;28427;-74
2022/08/28 05:42:44;;;;;;;2.62;2.37;;;20.80;77.70;;;;;;926711;154;27414;-74
2022/08/28 05:45:10;;;;;;;3.45;1.62;;;20.90;77.80;;;;;;926674;154;27369;-74
2022/08/28 05:47:37;;;;;;;4.10;1.95;;;21.00;77.80;;;;;;926216;152;27433;-74
2022/08/28 05:50:03;;;;;;;1.98;1.67;;;21.10;77.60;;;;;;932528;148;27402;-74
2022/08/28 05:52:30;;;;;;;3.12;1.95;;;21.30;77.50;;;;;;940375;151;27421;-74
2022/08/28 05:54:57;;;;;;;3.87;1.95;;;21.40;78.00;;;;;;939848;151;27811;-74
2022/08/28 05:57:23;;;;;;;2.15;1.82;;;21.50;76.80;;;;;;939209;149;27303;-74
2022/08/28 05:59:50;;;;;;;2.00;1.62;;;21.60;76.60;;;;;;938873;150;27329;-74
2022/08/28 06:02:16;;;;;;;3.08;1.90;;;21.80;76.50;;;;;;939005;151;27327;-74
2022/08/28 06:04:43;;;;;;;4.08;2.02;;;21.90;76.20;;;;;;939392;151;27344;-74
2022/08/28 06:07:12;;;;;;;3.83;1.65;;;22.00;75.70;;;;;;939056;149;27323;-75
2022/08/28 06:09:37;;;;;;;3.55;2.40;;;22.20;75.30;;;;;;938602;152;27349;-75
2022/08/28 06:12:03;;;;;;;1.77;1.62;;;22.30;74.80;;;;;;939193;150;27409;-74
2022/08/28 06:14:30;;;;;;;5.42;2.17;;;22.40;74.10;;;;;;939070;150;27478;-74
2022/08/28 06:16:56;;;;;;;2.12;1.75;;;22.50;73.50;;;;;;939360;150;27417;-75
2022/08/28 06:19:23;;;;;;;4.08;2.22;;;22.60;73.10;;;;;;938867;152;27320;-75
2022/08/28 06:21:51;;;;;;;2.00;1.55;;;22.70;72.90;;;;;;939623;152;27388;-75
2022/08/28 06:24:16;;;;;;;6.95;2.15;;;22.70;72.80;;;;;;939934;150;27417;-75
2022/08/28 06:26:42;;;;;;;2.42;1.87;;;22.80;72.60;;;;;;940161;152;27795;-75
2022/08/28 06:29:09;;;;;;;4.83;1.85;;;22.90;72.50;;;;;;939524;151;27431;-75
2022/08/28 06:31:35;;;;;;;2.27;1.60;;;22.90;72.40;;;;;;937795;152;27317;-75
2022/08/28 06:34:02;;;;;;;2.10;1.90;;;23.10;72.60;;;;;;939826;150;27384;-75
2022/08/28 06:36:29;;;;;;;2.90;1.60;;;23.30;72.50;;;;;;937069;149;27316;-75
2022/08/28 06:38:56;;;;;;;3.45;1.70;;;23.50;72.60;;;;;;937646;151;27356;-75
2022/08/28 06:41:22;;;;;;;2.70;1.82;;;23.80;74.20;;;;;;937516;152;27379;-75
2022/08/28 06:43:48;;;;;;;2.60;2.10;;;24.20;74.20;;;;;;940003;152;27310;-75
2022/08/28 06:46:15;;;;;;;2.37;1.95;;;24.70;74.60;;;;;;939670;152;27309;-75
2022/08/28 06:48:42;;;;;;;3.58;2.15;;;25.40;73.90;;;;;;939872;150;27309;-75
2022/08/28 06:51:08;;;;;;;3.40;1.50;;;26.10;72.40;;;;;;939324;151;27358;-75
2022/08/28 06:53:35;;;;;;;4.17;2.02;;;26.80;71.00;;;;;;939659;150;27433;-75
2022/08/28 06:56:05;;;;;;;2.92;1.50;;;27.40;69.30;;;;;;938881;150;27310;-75
2022/08/28 06:58:28;;;;;;;2.85;1.75;;;28.10;68.00;;;;;;938757;150;27375;-74
2022/08/28 07:01:01;;;;;;;4.42;1.65;;;28.80;66.40;;;;;;939434;152;27313;-75
2022/08/28 07:03:29;;;;;;;2.87;1.47;;;29.50;64.80;;;;;;939836;151;27309;-76
2022/08/28 07:05:57;;;;;;;2.10;1.40;;;30.10;62.30;;;;;;940176;151;27340;-75
2022/08/28 07:08:24;;;;;;;5.87;1.70;;;30.60;61.10;;;;;;943411;148;27342;-75
2022/08/28 07:10:50;;;;;;;3.37;1.62;;;31.20;60.10;;;;;;943285;147;27730;-75
2022/08/28 07:13:16;;;;;;;4.95;1.80;;;31.70;59.20;;;;;;945423;149;27411;-75
2022/08/28 07:15:43;;;;;;;2.70;1.42;;;32.20;57.90;;;;;;925521;151;27380;-76
2022/08/28 07:18:09;;;;;;;3.42;1.52;;;32.60;56.60;;;;;;936690;149;27457;-76
2022/08/28 07:20:36;;;;;;;2.15;1.67;;;32.90;55.60;;;;;;925863;151;27747;-76
2022/08/28 07:23:03;;;;;;;3.70;2.00;;;33.20;54.70;;;;;;943350;148;27408;-76
2022/08/28 07:25:29;;;;;;;3.52;1.85;;;33.30;54.00;;;;;;938055;150;27466;-76
2022/08/28 07:27:56;;;;;;;3.05;1.72;;;33.30;53.00;;;;;;937863;150;27465;-75
2022/08/28 07:30:22;;;;;;;2.98;1.98;;;33.30;52.50;;;;;;937328;150;27448;-75
2022/08/28 07:32:49;;;;;;;3.08;2.02;;;33.10;50.90;;;;;;937698;150;27441;-75
2022/08/28 07:35:16;;;;;;;3.05;1.67;;;32.90;51.10;;;;;;937601;150;27323;-75
2022/08/28 07:37:43;;;;;;;2.45;1.32;;;32.60;51.10;;;;;;943781;148;27391;-75
2022/08/28 07:40:09;;;;;;;2.25;1.50;;;32.30;51.20;;;;;;943479;148;27439;-76
2022/08/28 07:45:20;;;;;;;4.30;1.60;;;31.80;51.30;;;;;;944038;149;27471;-75
2022/08/28 07:47:47;;;;;;;2.12;1.57;;;31.50;51.50;;;;;;943564;149;27378;-76
2022/08/28 07:50:14;;;;;;;2.87;1.57;;;31.20;51.80;;;;;;942991;149;27431;-76
2022/08/28 07:52:40;;;;;;;4.58;2.08;;;31.10;52.20;;;;;;943442;149;27791;-75
2022/08/28 07:55:07;;;;;;;4.10;1.82;;;30.90;52.00;;;;;;944011;149;27466;-76
2022/08/28 07:57:33;;;;;;;3.80;1.75;;;30.70;52.20;;;;;;943943;149;27405;-76
2022/08/28 08:00:00;;;;;;;3.62;1.87;;;30.70;52.30;;;;;;943161;149;27378;-75
2022/08/28 08:02:28;;;;;;;1.67;1.50;;;30.60;52.40;;;;;;942574;149;27851;-75
2022/08/28 08:04:53;;;;;;;2.20;1.67;;;30.60;52.60;;;;;;943025;149;27438;-75
2022/08/28 08:07:20;;;;;;;4.15;1.47;;;30.60;52.70;;;;;;943218;149;27334;-76
2022/08/28 08:09:46;;;;;;;3.52;1.57;;;30.60;52.80;;;;;;943126;149;27329;-76
2022/08/28 08:12:13;;;;;;;3.00;1.77;;;30.70;52.50;;;;;;943553;149;27850;-76
2022/08/28 08:14:40;;;;;;;7.35;2.22;;;30.80;52.70;;;;;;943987;149;27354;-75
2022/08/28 08:17:06;;;;;;;2.75;1.80;;;30.90;52.50;;;;;;942325;149;27267;-75
2022/08/28 08:19:33;;;;;;;1.98;1.65;;;31.10;52.20;;;;;;943566;149;27328;-75
2022/08/28 08:22:00;;;;;;;3.40;1.55;;;31.40;52.60;;;;;;944589;149;27732;-76
2022/08/28 08:24:27;;;;;;;2.27;1.52;;;31.70;52.90;;;;;;942791;149;27314;-76
2022/08/28 08:26:52;;;;;;;2.35;1.60;;;32.20;52.70;;;;;;944520;149;27360;-76
2022/08/28 08:29:19;;;;;;;1.77;1.55;;;32.80;52.70;;;;;;943192;149;26296;-77
2022/08/28 08:31:46;;;;;;;2.65;1.50;;;33.50;52.20;;;;;;944164;149;27343;-76
2022/08/28 08:34:12;;;;;;;3.12;1.70;;;34.20;51.70;;;;;;941817;149;26177;-76
2022/08/28 08:36:39;;;;;;;3.27;1.42;;;34.90;50.40;;;;;;942443;149;27380;-76
2022/08/28 08:39:06;;;;;;;2.35;1.27;;;35.50;49.60;;;;;;943623;149;26280;-76
2022/08/28 08:41:38;;;;;;;1.98;1.50;;;36.10;48.60;;;;;;944143;149;26407;-77
2022/08/28 08:44:07;;;;;;;3.30;1.85;;;36.60;47.80;;;;;;942232;149;28262;-76
2022/08/28 08:46:49;;;;;;;3.37;1.87;;;37.00;46.80;;;;;;941596;149;26322;-76
2022/08/28 08:49:18;;;;;;;1.70;1.30;;;37.40;45.70;;;;;;922097;149;26239;-77
2022/08/28 08:51:47;;;;;;;2.87;1.77;;;37.60;45.30;;;;;;941002;149;26315;-76
2022/08/28 08:54:14;;;;;;;3.00;1.72;;;37.90;45.10;;;;;;936097;152;26309;-77
2022/08/28 08:56:40;;;;;;;2.22;1.47;;;38.20;44.30;;;;;;937031;152;26328;-76
2022/08/28 08:59:07;;;;;;;6.00;1.98;;;38.40;43.70;;;;;;942643;151;26250;-76
2022/08/28 09:01:46;;;;;;;4.20;1.90;;;38.60;43.20;;;;;;928983;153;26260;-76
2022/08/28 09:04:27;;;;;;;3.02;1.80;;;38.80;42.60;;;;;;926742;154;26277;-76
2022/08/28 09:07:15;;;;;;;1.70;1.60;;;38.90;42.20;;;;;;928814;153;26264;-76
2022/08/28 09:09:51;;;;;;;3.60;1.67;;;39.10;41.70;;;;;;928632;154;27351;-76
2022/08/28 09:12:21;;;;;;;3.65;1.90;;;39.20;40.60;;;;;;928938;154;26245;-76
2022/08/28 09:14:52;;;;;;;3.98;1.95;;;39.30;40.90;;;;;;936805;151;26319;-76
2022/08/28 09:17:19;;;;;;;3.62;1.40;;;39.40;41.00;;;;;;929390;154;26374;-76
2022/08/28 09:19:46;;;;;;;2.67;1.82;;;39.50;41.00;;;;;;928365;153;26222;-76
2022/08/28 09:22:12;;;;;;;3.35;1.65;;;39.60;40.60;;;;;;927259;152;26297;-76
2022/08/28 09:24:39;;;;;;;4.10;1.52;;;39.70;39.80;;;;;;927776;154;26331;-76
2022/08/28 09:27:05;;;;;;;2.47;1.70;;;39.70;39.00;;;;;;927487;153;26296;-76
2022/08/28 09:29:32;;;;;;;2.58;1.70;;;39.70;38.90;;;;;;924445;153;26346;-76
2022/08/28 09:31:58;;;;;;;3.67;1.65;;;39.60;38.60;;;;;;928233;153;26368;-76
2022/08/28 09:34:31;;;;;;;3.55;1.87;;;39.50;38.70;;;;;;924114;153;27717;-76
2022/08/28 09:37:00;;;;;;;3.58;1.75;;;39.40;38.30;;;;;;926241;154;27447;-76
2022/08/28 09:39:26;;;;;;;2.35;1.42;;;39.30;38.40;;;;;;928422;152;26399;-77
2022/08/28 09:45:02;;;;;;;2.70;1.50;;;39.10;37.90;;;;;;929842;154;26277;-76
2022/08/28 09:47:44;;;;;;;4.37;1.80;;;39.10;38.20;;;;;;923795;154;26282;-76
2022/08/28 09:50:19;;;;;;;2.60;1.57;;;39.00;38.20;;;;;;944037;151;26213;-77
2022/08/28 09:52:46;;;;;;;5.30;1.80;;;39.00;38.10;;;;;;913977;153;27417;-76
2022/08/28 09:55:12;;;;;;;3.45;1.72;;;38.90;38.00;;;;;;947532;148;26330;-76
2022/08/28 09:57:39;;;;;;;3.37;2.10;;;38.90;37.90;;;;;;946981;148;27327;-76
2022/08/28 10:00:05;;;;;;;3.50;1.32;;;38.80;37.40;;;;;;948008;148;26322;-76
2022/08/28 10:02:44;;;;;;;1.92;1.57;;;38.70;37.10;;;;;;948369;148;26259;-76
2022/08/28 10:05:10;;;;;;;2.95;1.87;;;38.40;36.90;;;;;;939018;148;27468;-76
2022/08/28 10:07:40;;;;;;;2.67;2.00;;;38.10;36.60;;;;;;948351;148;26296;-76
2022/08/28 10:10:17;;;;;;;2.52;1.72;;;37.80;36.60;;;;;;946825;148;27830;-76
2022/08/28 10:12:47;;;;;;;3.37;1.90;;;37.40;36.70;;;;;;949428;148;27364;-77
2022/08/28 10:15:35;;;;;;;2.20;1.67;;;37.00;37.00;;;;;;948514;148;27351;-77
2022/08/28 10:18:32;;;;;;;2.55;1.82;;;36.60;37.20;;;;;;947711;148;28885;-76
2022/08/28 10:20:58;;;;;;;2.62;1.75;;;36.20;37.30;;;;;;948492;148;27338;-76
2022/08/28 10:23:43;;;;;;;2.95;1.95;;;35.80;37.70;;;;;;946040;148;27358;-76
2022/08/28 10:26:34;;;;;;;1.70;1.60;;;35.50;37.70;;;;;;948858;148;27431;-76
2022/08/28 10:29:16;;;;;;;3.42;2.05;;;35.20;38.00;;;;;;948369;148;27429;-76
2022/08/28 10:31:42;;;;;;;3.05;1.85;;;34.80;37.90;;;;;;929515;148;27349;-76
2022/08/28 10:34:24;;;;;;;3.65;2.02;;;34.50;38.00;;;;;;947786;148;27498;-76
2022/08/28 10:36:50;;;;;;;3.60;2.17;;;34.20;38.10;;;;;;947584;148;27470;-76
2022/08/28 10:39:26;;;;;;;3.27;2.00;;;33.90;38.30;;;;;;945295;148;27410;-76
2022/08/28 10:41:55;;;;;;;3.15;2.10;;;33.60;38.40;;;;;;947373;148;27462;-76
2022/08/28 10:44:43;;;;;;;3.35;1.52;;;33.40;38.40;;;;;;947223;148;27368;-76
2022/08/28 10:47:10;;;;;;;2.98;1.87;;;33.10;38.70;;;;;;948484;148;27341;-76
2022/08/28 10:49:40;;;;;;;2.22;1.80;;;32.80;38.90;;;;;;949388;148;27282;-76
2022/08/28 10:52:15;;;;;;;2.40;1.90;;;32.50;39.00;;;;;;947932;148;27332;-76
2022/08/28 10:54:50;;;;;;;1.92;1.70;;;32.30;39.40;;;;;;947535;148;27411;-76
2022/08/28 10:57:44;;;;;;;2.83;2.00;;;32.10;39.80;;;;;;947999;148;27468;-77
2022/08/28 11:00:16;;;;;;;2.02;1.60;;;31.90;39.80;;;;;;947255;148;27462;-76
2022/08/28 11:02:45;;;;;;;2.12;1.72;;;31.70;39.90;;;;;;948565;148;27484;-76
2022/08/28 11:05:12;;;;;;;2.42;1.98;;;31.50;40.10;;;;;;947937;148;27337;-77
2022/08/28 11:07:38;;;;;;;2.17;1.72;;;31.50;40.50;;;;;;947501;148;27461;-77
2022/08/28 11:10:17;;;;;;;2.30;2.00;;;31.30;40.60;;;;;;946403;148;27775;-77
2022/08/28 11:12:44;;;;;;;2.95;2.20;;;31.30;40.70;;;;;;948393;148;27365;-77
2022/08/28 11:15:30;;;;;;;3.17;1.90;;;31.20;40.70;;;;;;949411;148;28090;-77
2022/08/28 11:17:55;;;;;;;2.95;1.82;;;31.10;40.70;;;;;;945438;148;27373;-78
2022/08/28 11:20:25;;;;;;;3.25;2.22;;;31.10;41.00;;;;;;948410;148;27413;-77
2022/08/28 11:22:54;;;;;;;4.67;2.20;;;31.00;40.80;;;;;;948937;148;27357;-77
2022/08/28 11:25:33;;;;;;;2.00;1.90;;;31.00;40.80;;;;;;947991;148;27494;-77
2022/08/28 11:28:17;;;;;;;2.77;1.82;;;30.90;40.70;;;;;;919811;151;27294;-77
2022/08/28 11:30:45;;;;;;;3.80;2.00;;;30.90;40.90;;;;;;948430;148;27304;-77
2022/08/28 11:33:48;;;;;;;3.33;1.75;;;30.80;41.00;;;;;;947851;148;27334;-77
2022/08/28 11:36:24;;;;;;;3.37;2.05;;;30.70;41.30;;;;;;947933;148;27435;-77
2022/08/28 11:38:52;;;;;;;4.75;2.05;;;30.70;41.30;;;;;;946601;148;27388;-76
2022/08/28 11:41:23;;;;;;;3.42;1.77;;;30.60;41.10;;;;;;948997;148;27405;-76
2022/08/28 11:43:48;;;;;;;4.58;2.02;;;30.60;41.10;;;;;;947808;148;27361;-76
2022/08/28 11:46:30;;;;;;;4.22;2.12;;;30.50;41.10;;;;;;948472;148;27369;-77
2022/08/28 11:48:56;;;;;;;3.37;2.33;;;30.50;41.30;;;;;;944258;148;27691;-77
2022/08/28 11:52:00;;;;;;;3.67;2.12;;;30.40;42.00;;;;;;945199;148;27455;-76
2022/08/28 11:54:45;;;;;;;3.02;1.85;;;30.30;41.30;;;;;;942542;148;27754;-77
2022/08/28 11:57:24;;;;;;;3.90;2.02;;;30.20;41.40;;;;;;938845;149;28836;-77
2022/08/28 11:59:56;;;;;;;3.12;1.92;;;30.10;41.70;;;;;;941274;149;27447;-77
2022/08/28 12:02:42;;;;;;;2.20;2.00;;;30.10;41.80;;;;;;939186;149;27461;-77
2022/08/28 12:05:16;;;;;;;4.17;2.30;;;30.00;41.80;;;;;;940950;149;27286;-75
2022/08/28 12:07:43;;;;;;;4.10;2.10;;;30.00;41.90;;;;;;942617;149;27729;-75
2022/08/28 12:10:25;;;;;;;2.12;1.72;;;30.00;41.90;;;;;;942513;148;27325;-75
2022/08/28 12:12:54;;;;;;;2.17;1.98;;;29.90;41.80;;;;;;923765;150;27365;-75
2022/08/28 12:15:27;;;;;;;3.42;2.10;;;29.90;41.80;;;;;;938572;149;27467;-75
2022/08/28 12:17:53;;;;;;;3.62;2.35;;;29.80;41.80;;;;;;941065;149;27419;-76
2022/08/28 12:20:50;;;;;;;3.08;2.05;;;29.70;41.90;;;;;;941732;149;27335;-76
2022/08/28 12:23:23;;;;;;;3.30;2.05;;;29.70;41.90;;;;;;940878;149;27396;-76
2022/08/28 12:25:49;;;;;;;2.80;2.08;;;29.60;41.90;;;;;;941041;149;27531;-77
2022/08/28 12:28:19;;;;;;;4.30;2.52;;;29.60;42.00;;;;;;938733;149;27422;-76
2022/08/28 12:30:48;;;;;;;4.95;2.72;;;29.50;42.00;;;;;;940113;149;27334;-76
2022/08/28 12:33:20;;;;;;;4.03;2.00;;;29.40;41.90;;;;;;940004;149;27298;-76
2022/08/28 12:35:46;;;;;;;3.08;2.15;;;29.40;41.90;;;;;;940228;149;27448;-76
2022/08/28 12:38:13;;;;;;;3.37;2.00;;;29.30;42.10;;;;;;939036;149;27436;-76
2022/08/28 12:40:40;;;;;;;3.00;1.98;;;29.30;42.10;;;;;;939752;149;27501;-76
2022/08/28 12:43:06;;;;;;;2.40;2.20;;;29.20;42.10;;;;;;940534;149;27415;-76
2022/08/28 12:45:33;;;;;;;2.77;2.10;;;29.10;42.10;;;;;;940014;149;27420;-77
2022/08/28 12:47:59;;;;;;;5.42;2.15;;;29.10;42.20;;;;;;937664;149;27327;-77
2022/08/28 12:50:26;;;;;;;2.65;1.77;;;29.10;42.30;;;;;;938329;149;27374;-76
2022/08/28 12:52:53;;;;;;;3.65;2.00;;;29.10;42.40;;;;;;940299;149;27323;-76
2022/08/28 12:55:19;;;;;;;2.37;1.80;;;29.10;42.30;;;;;;931365;149;27374;-76
2022/08/28 12:57:46;;;;;;;3.25;2.00;;;29.10;42.40;;;;;;944757;149;27289;-76
2022/08/28 13:00:12;;;;;;;3.50;1.77;;;29.10;42.40;;;;;;928058;151;27424;-76
2022/08/28 13:02:39;;;;;;;2.90;2.02;;;29.10;42.40;;;;;;927985;154;27456;-76
2022/08/28 13:05:06;;;;;;;4.22;2.22;;;29.10;42.30;;;;;;928943;153;27699;-76
2022/08/28 13:07:35;;;;;;;2.00;1.62;;;29.10;42.20;;;;;;944446;151;27328;-76